Casper, WY

2:12 AM MDT on September 22, 2014 (GMT -0600)
North of Casper, WY | Change Station
CLOSE
Current Station
Personal Weather Station
Location: Bar Nunn, WY
Elevation: 5276 ft
Nearby Weather Stations

Elev 5276 ft 42.91 °N, 106.35 °W | Updated 2 minutes ago

Overcast
Overcast
57.3 °F
Feels Like 57.3 °F
N
0.0
Wind Variable Wind from NNE
Gusts 0.0 mph

Today
High -- | Low -- °F
--% Chance of Precip.
Yesterday
High -- | Low -- °F
Precip. -- in
6:52 AM 7:02 PM
Waning Crescent, 3% visible
Pressure 30.17 in
Visibility 10.0 miles
Clouds Scattered Clouds 11000 ft
Dew Point 42 °F
Humidity 58%
Rainfall 0.00 in
Snow Depth Not available.
UV 0 out of 12
Pollen 4.00 out of 12
Air Quality Not available.
Flu Activity Not available.
METAR KCPR 220753Z AUTO 05006KT 10SM SCT110 14/05 A3017

More Conditions Fewer Conditions

Pressure 30.17 in
Visibility 10.0 miles
Clouds Scattered Clouds 11000 ft
Dew Point 42 °F
Humidity 58%
Rainfall 0.00 in
Snow Depth Not available.
UV 0 out of 12
Pollen 4.00 out of 12
Air Quality Not available.
Flu Activity Not available.
METAR KCPR 220753Z AUTO 05006KT 10SM SCT110 14/05 A3017

More Conditions Fewer Conditions

10-Day Weather Forecast

Almanac

Astronomy

Sep. 22, 2014 Rise Set
Actual Time 6:52 AM MDT 7:02 PM MDT
Civil Twilight 6:24 AM MDT 7:30 PM MDT
Nautical Twilight 5:51 AM MDT 8:03 PM MDT
Astronomical Twilight 5:17 AM MDT 8:37 PM MDT
Moon 5:22 AM MDT 6:12 PM MDT
Length of Visible Light 13h 06m
Length of Day
12h 09m
Tomorrow will be 2m 53s shorter.
Waning Crescent, 3% of the Moon is Illuminated
Today
Waning Crescent
Sep 24
New
Oct 1
First Quarter
Oct 8
Full
Oct 15
Last Quarter

Today's Extremes

State Highs State Lows

Community

WunderPhotos

Upload Photos

1,755,395 photos uploaded!

Nearby

Snow Depth

Station Depth Elevation
Cinnabar Park 0 in 9690 ft
Casper Mountain 0 in 7850 ft
Two Ocean Plateau 0 in 9240 ft
North French Creek 1 in 10130 ft
Thumb Divide 0 in 7980 ft

Earthquake Activity

City Distance Mag. Time & Date
No recent earthquake activity has been reported nearby.
Minimum magnitude displayed is 2.5.

Coastal Water Temperatures

Place Temperature
No Stations Reporting

Nearby Weather Stations